Skip to main content

NOAA/GLERL Met Station at Muskegon, MI

Previous 3 Hours (2 minute increments)
See also Previous 5 Days (top of hour)
Jump down to Data
Switch to [English][Metric]
Zoom: Click and drag, Pan: shift-click and drag, Unzoom: double-click, Unzoom All






See also 1-day windrose plot


NOAA/GLERL Met Station at Muskegon, MI

Previous 3 Hours (2 minute increments)
See also Previous 5 Days (top of hour only)
Jump up to Graphs
Switch to [English][Metric]
                  Wind  Wind  Wind   Air   Dew   Rel     Sta   PAR
                   Spd   Gst   Dir  Temp    Pt   Hum    Pres uE/m2/
YYYY-MM-DD   EDT   kts   kts   deg     F     F     %   in Hg   sec
2020-08-07 08:30   7.0   8.2   106  65.3  56.6  73.2   29.55  1152
2020-08-07 08:28   6.6   7.6   104  65.1  56.4  73.1   29.55  1138
2020-08-07 08:26   6.6   7.8   102  64.9  56.5  73.9   29.55  1124
2020-08-07 08:24   6.0   7.8   100  64.9  56.5  73.7   29.55  1111
2020-08-07 08:22   6.0   8.0   103  65.1  56.7  73.9   29.55  1097
2020-08-07 08:20   6.0   8.0   102  64.9  56.5  73.7   29.55  1082
2020-08-07 08:18   6.8   8.2    99  64.8  56.5  74.3   29.55  1067
2020-08-07 08:16   7.4   8.6   100  64.6  56.5  74.8   29.55  1052
2020-08-07 08:14   6.8   7.8   101  64.6  56.7  75.2   29.55  1037
2020-08-07 08:12   6.4   7.8   103  64.4  56.4  75.0   29.55  1020
2020-08-07 08:10   7.4   8.4   100  64.4  56.4  75.0   29.55  1004
2020-08-07 08:08   6.4   7.8   104  64.2  56.3  75.1   29.55   986
2020-08-07 08:06   7.0   8.7   103  64.0  56.2  75.3   29.55   969
2020-08-07 08:04   8.0   8.7    98  63.9  56.2  75.7   29.55   950
2020-08-07 08:02   7.4   9.1   101  63.7  56.0  75.9   29.55   933
2020-08-07 08:00   7.8   9.3    98  63.7  56.1  76.1   29.55   914
2020-08-07 07:58   8.0   8.9   101  63.7  56.3  76.5   29.55   893
2020-08-07 07:56   7.8   8.6   100  63.5  56.2  76.7   29.55   873
2020-08-07 07:54   7.6   8.9   102  63.5  56.2  76.8   29.55   852
2020-08-07 07:52   7.6   8.7   103  63.3  56.0  76.7   29.55   832
2020-08-07 07:50   7.8   8.7   102  63.3  55.8  76.1   29.55   810
2020-08-07 07:48   8.6   9.5   104  63.1  55.2  74.9   29.55   787
2020-08-07 07:46   8.9  10.3   104  63.0  55.2  75.5   29.55   767
2020-08-07 07:44   8.7   9.7   103  63.0  55.2  75.5   29.55   745
2020-08-07 07:42   8.6   9.7   103  62.8  55.3  76.2   29.55   721
2020-08-07 07:40   9.1  10.1   104  62.8  55.5  76.8   29.55   695
2020-08-07 07:38   9.1  10.5   105  62.8  55.6  77.2   29.55   670
2020-08-07 07:36   8.9   9.7   104  62.6  55.7  77.8   29.55   646
2020-08-07 07:34   8.4   9.7   105  62.6  55.8  78.1   29.55   619
2020-08-07 07:32   8.7   9.3   103  62.4  55.5  77.7   29.55   587
2020-08-07 07:30   8.7   9.5   104  62.4  55.2  77.0   29.55   551
2020-08-07 07:28   8.9   9.7   108  62.2  55.0  76.9   29.55   517
2020-08-07 07:26   9.5  10.3   105  62.2  55.1  77.2   29.55   485
2020-08-07 07:24   8.6  10.3   103  62.2  55.2  77.4   29.55   447
2020-08-07 07:22   8.9  10.1   102  62.1  55.0  77.5   29.55   410
2020-08-07 07:20   8.7   9.5   103  62.1  55.0  77.5   29.55   370
2020-08-07 07:18   9.3  10.1   105  61.9  54.9  77.6   29.55   336
2020-08-07 07:16   9.5  10.7   105  61.9  55.0  77.9   29.55   271
2020-08-07 07:14   8.7   9.7   106  61.7  54.9  78.2   29.55   164
2020-08-07 07:12   8.9  10.1   106  61.7  55.0  78.4   29.55   143
2020-08-07 07:10   8.7  10.1   108  61.7  55.0  78.4   29.55   110
2020-08-07 07:08   9.3  10.5   108  61.7  55.1  78.8   29.55    98
2020-08-07 07:06   8.9  10.9   108  61.7  55.4  79.5   29.55    88
2020-08-07 07:04   8.2   9.9   110  61.7  55.6  80.2   29.55    81
2020-08-07 07:02   8.2   9.3   110  61.7  55.8  80.6   29.55    73
2020-08-07 07:00   7.8   8.6   110  61.9  55.8  80.2   29.55    66
2020-08-07 06:58   7.2   8.2   112  61.9  55.6  79.7   29.55    59
2020-08-07 06:56   8.4   9.3   111  61.9  55.6  79.5   29.54    52
2020-08-07 06:54   8.6   9.5   111  62.1  55.7  79.3   29.54    46
2020-08-07 06:52   8.0   8.9   111  62.1  55.5  78.9   29.54    40
2020-08-07 06:50   8.4   8.9   109  62.2  55.5  78.4   29.54    34
2020-08-07 06:48   8.6   9.1   108  62.2  55.5  78.2   29.54    29
2020-08-07 06:46   8.0   9.3   109  62.2  55.4  78.0   29.54    24
2020-08-07 06:44   8.2   9.3   105  62.2  55.4  78.0   29.54    20
2020-08-07 06:42   8.2   9.3   106  62.4  55.6  78.1   29.54    17
2020-08-07 06:40   8.2   9.1   108  62.4  55.7  78.3   29.54    14
2020-08-07 06:38   8.0   9.3   105  62.4  55.8  78.6   29.54    11
2020-08-07 06:36   8.7   9.7   106  62.4  55.8  78.8   29.54     9
2020-08-07 06:34   9.1   9.9   106  62.4  55.7  78.5   29.54     7
2020-08-07 06:32   8.0   8.9   108  62.4  55.6  78.0   29.54     6
2020-08-07 06:30   8.7   9.9   110  62.4  55.5  77.7   29.54     5
2020-08-07 06:28   8.0   8.9   109  62.4  55.3  77.2   29.54     4
2020-08-07 06:26   8.9   9.5   109  62.6  55.4  76.9   29.54     4
2020-08-07 06:24   9.3  10.1   109  62.6  55.2  76.6   29.54     3
2020-08-07 06:22   9.1  10.1   110  62.6  55.3  76.7   29.54     3
2020-08-07 06:20   9.3  10.7   108  62.4  55.2  76.9   29.54     2
2020-08-07 06:18   8.9   9.9   108  62.4  55.1  76.6   29.54     2
2020-08-07 06:16   8.9   9.9   108  62.4  55.1  76.7   29.53     2
2020-08-07 06:14   9.1  10.5   108  62.4  55.1  76.7   29.53     2
2020-08-07 06:12   8.9   9.9   105  62.4  55.2  76.9   29.53     2
2020-08-07 06:10   9.1   9.9   104  62.2  55.4  78.0   29.53     2
2020-08-07 06:08   7.8   8.6   104  62.2  55.6  78.5   29.53     2
2020-08-07 06:06   8.2   9.5   103  62.2  55.8  79.2   29.53     2
2020-08-07 06:04   7.6   8.9   102  62.1  55.8  79.6   29.53     2
2020-08-07 06:02   8.0   8.9   103  62.2  55.9  79.4   29.53     2
2020-08-07 06:00   7.8   8.7   104  62.2  55.7  78.8   29.53     2
2020-08-07 05:58   8.0   8.7   103  62.2  55.6  78.5   29.53     2
2020-08-07 05:56   7.6   8.7   104  62.2  55.5  78.2   29.53     2
2020-08-07 05:54   7.8   8.7   107  62.2  55.5  78.2   29.53     2
2020-08-07 05:52   8.4   9.3   108  62.2  55.5  78.2   29.53     2
2020-08-07 05:50   8.4   9.1   107  62.2  55.5  78.4   29.53     2
2020-08-07 05:48   8.4   9.3   105  62.4  55.6  78.0   29.53     2
2020-08-07 05:46   8.2   8.9   104  62.2  55.3  77.8   29.53     2
2020-08-07 05:44   7.6   8.7   104  62.2  55.2  77.5   29.53     2
2020-08-07 05:42   8.0   8.7   104  62.4  55.3  77.3   29.53     2
2020-08-07 05:40   8.0   9.1   106  62.4  55.3  77.3   29.53     2
2020-08-07 05:38   8.0   9.1   104  62.4  55.3  77.1   29.53     2
2020-08-07 05:36   8.2   8.9   104  62.4  55.2  77.0   29.53     2
2020-08-07 05:34   8.0   8.9   106  62.4  55.3  77.3   29.53     2
2020-08-07 05:32   8.0   8.9   107  62.4  55.7  78.3   29.53     2
2020-08-07 05:30   8.2   9.5   108  62.4  55.8  78.7   29.52     2